Time;durP1;ratioP1;P1;durP2;ratioP2;P2;SDS_P1;SDS_P2;PMS_P1;PMS_P2;Temp;Humidity;BMP_temperature;BMP_pressure;BME280_temperature;BME280_humidity;BME280_pressure;Samples;Min_cycle;Max_cycle;Signal;HPM_P1;HPM_P2
2022/03/18 00:02:13;;;;;;;27.00;9.82;;;5.10;99.90;;;;;;5013884;28;20120;-81
2022/03/18 00:04:39;;;;;;;22.45;8.00;;;5.50;99.90;;;;;;5013778;28;20506;-81
2022/03/18 00:07:05;;;;;;;20.05;8.57;;;5.80;99.90;;;;;;5013854;28;20026;-80
2022/03/18 00:09:31;;;;;;;18.77;7.93;;;5.80;99.90;;;;;;5013884;28;20030;-79
2022/03/18 00:11:57;;;;;;;24.20;7.90;;;5.60;99.90;;;;;;5013814;28;20045;-82
2022/03/18 00:14:23;;;;;;;22.45;8.80;;;5.90;99.90;;;;;;5013945;28;20022;-82
2022/03/18 00:16:49;;;;;;;18.70;8.57;;;6.30;99.90;;;;;;5013517;28;20124;-80
2022/03/18 00:19:15;;;;;;;18.90;8.68;;;5.80;99.90;;;;;;5013468;28;20041;-80
2022/03/18 00:21:41;;;;;;;18.33;9.07;;;5.90;99.90;;;;;;5013704;28;20034;-79
2022/03/18 00:24:07;;;;;;;18.92;9.68;;;5.50;99.90;;;;;;5013642;28;20030;-77
2022/03/18 00:26:33;;;;;;;20.15;9.20;;;5.30;99.90;;;;;;5013689;28;20140;-78
2022/03/18 00:29:00;;;;;;;18.05;8.93;;;5.40;99.90;;;;;;5012226;28;20018;-77
2022/03/18 00:31:26;;;;;;;21.63;9.10;;;5.20;99.90;;;;;;5012021;28;20034;-80
2022/03/18 00:33:52;;;;;;;20.02;8.88;;;5.50;99.90;;;;;;5013550;28;20029;-76
2022/03/18 00:36:18;;;;;;;20.73;9.02;;;5.00;99.90;;;;;;5013503;28;20458;-81
2022/03/18 00:38:44;;;;;;;25.60;10.50;;;5.20;99.90;;;;;;5013451;28;20093;-81
2022/03/18 00:41:10;;;;;;;19.70;9.73;;;5.50;99.90;;;;;;5013027;28;20036;-76
2022/03/18 00:43:36;;;;;;;27.00;8.60;;;5.70;99.90;;;;;;5013455;28;20034;-81
2022/03/18 00:46:02;;;;;;;21.02;9.23;;;5.40;99.90;;;;;;5012992;28;20041;-81
2022/03/18 00:53:57;;;;;;;21.80;8.80;;;4.80;99.90;;;;;;5013357;28;20018;-81
2022/03/18 00:56:23;;;;;;;25.17;9.15;;;4.60;99.90;;;;;;5011872;28;20187;-81
2022/03/18 00:58:48;;;;;;;20.23;9.35;;;4.40;99.90;;;;;;5013171;28;20037;-80
2022/03/18 01:01:14;;;;;;;27.40;9.73;;;4.30;99.90;;;;;;5013168;28;20029;-76
2022/03/18 01:03:40;;;;;;;20.80;9.45;;;4.70;99.90;;;;;;5013190;28;20488;-77
2022/03/18 01:06:06;;;;;;;25.95;10.60;;;5.30;99.90;;;;;;5013041;28;20475;-80
2022/03/18 01:08:32;;;;;;;20.60;9.40;;;5.60;99.90;;;;;;5012847;28;20018;-79
2022/03/18 01:11:01;;;;;;;22.15;10.18;;;5.70;99.90;;;;;;5013230;28;20037;-76
2022/03/18 01:13:27;;;;;;;21.67;8.95;;;5.40;99.90;;;;;;5013084;28;20108;-77
2022/03/18 01:15:53;;;;;;;30.27;10.10;;;5.30;99.90;;;;;;5012786;28;20037;-80
2022/03/18 01:18:19;;;;;;;21.55;10.30;;;5.40;99.90;;;;;;5012648;28;20084;-80
2022/03/18 01:20:46;;;;;;;21.63;8.98;;;5.30;99.90;;;;;;5013124;28;20137;-81
2022/03/18 01:23:12;;;;;;;23.13;9.48;;;4.70;99.90;;;;;;4994323;28;20069;-79
2022/03/18 01:25:38;;;;;;;21.85;9.25;;;4.50;99.90;;;;;;4993250;28;20039;-80
2022/03/18 01:28:04;;;;;;;19.02;8.48;;;4.50;99.90;;;;;;4993143;28;20400;-76
2022/03/18 01:30:30;;;;;;;23.05;9.77;;;4.70;99.90;;;;;;4992922;28;20106;-76
2022/03/18 01:33:00;;;;;;;22.35;9.50;;;4.70;99.90;;;;;;4992078;28;20026;-79
2022/03/18 01:35:27;;;;;;;21.33;10.18;;;4.90;99.90;;;;;;4993385;28;20026;-80
2022/03/18 01:37:53;;;;;;;23.80;9.77;;;4.80;99.90;;;;;;4993056;28;20118;-79
2022/03/18 01:40:19;;;;;;;18.88;9.55;;;5.00;99.90;;;;;;4993155;28;20101;-80
2022/03/18 01:42:45;;;;;;;20.30;10.00;;;4.50;99.90;;;;;;4993185;28;20366;-80
2022/03/18 01:45:11;;;;;;;23.92;10.25;;;4.60;99.90;;;;;;4993028;28;20046;-76
2022/03/18 01:47:42;;;;;;;23.25;10.35;;;4.80;99.90;;;;;;4992925;28;20480;-80
2022/03/18 01:50:13;;;;;;;22.73;9.77;;;5.00;99.90;;;;;;4993095;28;20105;-80
2022/03/18 01:52:39;;;;;;;22.65;10.48;;;4.90;99.90;;;;;;4993092;28;20061;-76
2022/03/18 01:55:06;;;;;;;24.20;9.98;;;4.90;99.90;;;;;;4995338;28;20461;-80
2022/03/18 01:57:32;;;;;;;22.77;9.85;;;4.80;99.90;;;;;;5010109;28;20097;-79
2022/03/18 01:59:58;;;;;;;28.48;10.38;;;4.10;99.90;;;;;;5034871;28;20026;-80
2022/03/18 02:02:25;;;;;;;26.08;9.93;;;4.20;99.90;;;;;;5027613;28;20022;-80
2022/03/18 02:04:51;;;;;;;27.65;9.50;;;4.60;99.90;;;;;;5016416;28;20026;-82
2022/03/18 02:07:17;;;;;;;17.33;9.20;;;4.80;99.90;;;;;;5033714;28;20395;-80
2022/03/18 02:09:44;;;;;;;19.02;9.27;;;4.90;99.90;;;;;;5035799;28;20023;-76
2022/03/18 02:12:11;;;;;;;22.25;9.70;;;4.60;99.90;;;;;;5036065;28;20037;-80
2022/03/18 02:14:42;;;;;;;19.45;9.63;;;4.60;99.90;;;;;;5035137;28;20502;-79
2022/03/18 02:17:11;;;;;;;19.55;9.15;;;4.70;99.90;;;;;;5036003;28;20037;-80
2022/03/18 02:19:38;;;;;;;27.90;9.60;;;4.50;99.90;;;;;;5035576;28;20036;-80
2022/03/18 02:22:15;;;;;;;19.40;9.10;;;4.50;99.90;;;;;;5035645;28;20033;-80
2022/03/18 02:24:43;;;;;;;20.42;8.50;;;4.50;99.90;;;;;;5035600;28;20065;-79
2022/03/18 02:27:09;;;;;;;25.58;10.27;;;4.40;99.90;;;;;;5034503;28;20375;-80
2022/03/18 02:29:35;;;;;;;20.92;8.52;;;4.40;99.90;;;;;;5035253;28;20038;-81
2022/03/18 02:32:02;;;;;;;21.50;9.10;;;4.60;99.90;;;;;;5034923;28;20075;-77
2022/03/18 02:34:28;;;;;;;21.67;8.75;;;4.30;99.90;;;;;;5035467;28;20087;-79
2022/03/18 02:36:54;;;;;;;18.48;9.25;;;4.00;99.90;;;;;;5035529;28;20037;-80
2022/03/18 02:39:20;;;;;;;16.08;8.90;;;4.00;99.90;;;;;;5035290;28;20116;-81
2022/03/18 02:41:46;;;;;;;18.73;8.68;;;4.30;99.90;;;;;;5034412;28;20113;-81
2022/03/18 02:44:12;;;;;;;22.08;10.23;;;4.50;99.90;;;;;;5034841;28;20116;-80
2022/03/18 02:46:37;;;;;;;20.05;8.88;;;4.70;99.90;;;;;;5035323;28;20034;-78
2022/03/18 02:49:04;;;;;;;15.50;8.90;;;5.00;99.90;;;;;;5034945;28;20041;-80
2022/03/18 02:51:31;;;;;;;18.08;9.02;;;5.00;99.90;;;;;;5035245;28;20053;-81
2022/03/18 02:53:57;;;;;;;24.13;8.82;;;4.20;99.90;;;;;;5035096;28;20021;-81
2022/03/18 02:56:24;;;;;;;19.10;8.38;;;3.70;99.90;;;;;;5035095;28;20109;-81
2022/03/18 02:58:50;;;;;;;23.50;9.55;;;3.30;99.90;;;;;;5034742;28;20034;-81
2022/03/18 03:01:17;;;;;;;27.77;10.68;;;3.70;99.90;;;;;;5035070;28;20033;-81
2022/03/18 03:03:43;;;;;;;27.80;10.27;;;3.90;99.90;;;;;;5015582;28;20061;-78
2022/03/18 03:08:53;;;;;;;17.38;8.93;;;4.30;99.90;;;;;;5034821;28;20087;-80
2022/03/18 03:11:22;;;;;;;19.63;9.43;;;4.00;99.90;;;;;;5034574;28;20116;-80
2022/03/18 03:13:48;;;;;;;19.70;8.60;;;3.50;99.90;;;;;;5017370;28;20395;-79
2022/03/18 03:16:14;;;;;;;25.45;9.98;;;3.50;99.90;;;;;;5034611;28;20018;-80
2022/03/18 03:18:40;;;;;;;20.15;8.45;;;3.40;99.90;;;;;;5034448;28;20104;-80
2022/03/18 03:21:06;;;;;;;27.10;9.70;;;3.70;99.90;;;;;;5034584;28;20459;-81
2022/03/18 03:23:32;;;;;;;20.40;9.02;;;3.70;99.90;;;;;;5033428;28;20052;-81
2022/03/18 03:25:58;;;;;;;28.83;8.82;;;3.80;99.90;;;;;;5034293;28;20034;-81
2022/03/18 03:28:23;;;;;;;27.83;9.20;;;4.00;99.90;;;;;;5034524;28;20093;-81
2022/03/18 03:30:50;;;;;;;23.90;8.32;;;4.00;99.90;;;;;;5034455;28;20442;-80
2022/03/18 03:33:16;;;;;;;26.98;9.18;;;3.90;99.90;;;;;;5034488;28;20052;-76
2022/03/18 03:35:42;;;;;;;24.88;8.68;;;3.70;99.90;;;;;;5034414;28;20034;-80
2022/03/18 03:38:15;;;;;;;22.55;8.82;;;3.90;99.90;;;;;;5034360;28;20072;-81
2022/03/18 03:40:41;;;;;;;18.73;8.55;;;3.70;99.90;;;;;;5033906;28;20116;-80
2022/03/18 03:43:08;;;;;;;19.95;8.95;;;3.40;99.90;;;;;;5034280;28;20062;-81
2022/03/18 03:45:37;;;;;;;25.50;9.57;;;3.30;99.90;;;;;;5034139;28;20471;-81
2022/03/18 03:48:05;;;;;;;20.38;7.95;;;3.30;99.90;;;;;;5034046;28;20033;-79
2022/03/18 03:50:31;;;;;;;29.42;9.30;;;3.40;99.90;;;;;;5033980;28;20057;-81
2022/03/18 03:52:57;;;;;;;17.13;8.98;;;3.40;99.90;;;;;;5034179;28;20472;-79
2022/03/18 03:55:23;;;;;;;23.73;8.82;;;3.30;99.90;;;;;;5034430;28;20033;-80
2022/03/18 03:57:49;;;;;;;17.95;9.68;;;3.30;99.90;;;;;;5034016;28;20033;-80
2022/03/18 04:00:15;;;;;;;19.23;8.25;;;3.60;99.90;;;;;;5033794;28;20028;-80
2022/03/18 04:02:43;;;;;;;21.08;8.25;;;3.70;99.90;;;;;;5023293;28;20033;-81
2022/03/18 04:05:10;;;;;;;22.88;9.25;;;3.80;99.90;;;;;;5013998;28;20041;-80
2022/03/18 04:07:37;;;;;;;26.95;9.80;;;3.90;99.90;;;;;;5012665;28;20131;-80
2022/03/18 04:10:04;;;;;;;26.67;9.10;;;3.60;99.90;;;;;;5013856;28;20021;-80
2022/03/18 04:12:32;;;;;;;18.13;7.93;;;3.70;99.90;;;;;;5013912;28;20411;-80
2022/03/18 04:14:59;;;;;;;22.88;8.38;;;3.70;99.90;;;;;;5028115;28;20026;-81
2022/03/18 04:17:26;;;;;;;19.90;9.25;;;3.40;99.90;;;;;;5032748;28;20386;-81
2022/03/18 04:19:54;;;;;;;22.58;8.85;;;3.70;99.90;;;;;;5033632;28;20079;-80
2022/03/18 04:22:21;;;;;;;24.73;9.68;;;3.80;99.90;;;;;;5033373;28;20475;-81
2022/03/18 04:24:47;;;;;;;24.08;8.93;;;4.00;99.90;;;;;;5033108;28;20112;-82
2022/03/18 04:27:12;;;;;;;22.25;9.10;;;3.90;99.90;;;;;;5033360;28;20112;-78
2022/03/18 04:29:38;;;;;;;22.65;8.68;;;4.10;99.90;;;;;;5033373;28;20025;-82
2022/03/18 04:32:04;;;;;;;25.13;9.27;;;4.10;99.90;;;;;;5033305;28;20041;-81
2022/03/18 04:34:30;;;;;;;22.90;9.57;;;4.20;99.90;;;;;;5032179;28;20097;-79
2022/03/18 04:36:56;;;;;;;19.85;8.90;;;4.30;99.90;;;;;;5033246;28;20112;-80
2022/03/18 04:39:22;;;;;;;30.63;9.32;;;4.30;99.90;;;;;;5031796;28;20451;-80
2022/03/18 04:41:47;;;;;;;22.83;8.90;;;4.20;99.90;;;;;;5033142;28;20391;-81
2022/03/18 04:44:13;;;;;;;24.45;9.93;;;4.20;99.90;;;;;;5033198;28;20028;-76
2022/03/18 04:46:39;;;;;;;25.13;8.77;;;4.20;99.90;;;;;;5032865;28;20132;-78
2022/03/18 04:49:05;;;;;;;24.52;8.57;;;4.30;99.90;;;;;;5033180;28;20026;-80
2022/03/18 04:51:31;;;;;;;21.95;8.70;;;4.00;99.90;;;;;;5031757;28;20053;-81
2022/03/18 04:53:57;;;;;;;20.85;9.02;;;4.20;99.90;;;;;;5032758;28;20100;-81
2022/03/18 04:59:07;;;;;;;21.20;8.57;;;4.40;99.90;;;;;;5032995;28;20041;-82
2022/03/18 05:01:33;;;;;;;20.85;8.27;;;4.40;99.90;;;;;;5030363;28;20025;-82
2022/03/18 05:03:59;;;;;;;20.45;8.32;;;4.00;99.90;;;;;;5013484;28;20030;-80
2022/03/18 05:06:26;;;;;;;24.08;9.25;;;4.10;99.90;;;;;;5012932;28;20046;-81
2022/03/18 05:08:52;;;;;;;25.42;8.35;;;3.70;99.90;;;;;;5012745;28;20025;-80
2022/03/18 05:11:18;;;;;;;18.10;8.02;;;3.60;99.90;;;;;;5013198;28;20069;-81
2022/03/18 05:13:44;;;;;;;30.20;9.65;;;3.70;99.90;;;;;;5013073;28;20018;-81
2022/03/18 05:16:10;;;;;;;17.35;7.85;;;3.90;99.90;;;;;;5012999;28;20479;-78
2022/03/18 05:18:37;;;;;;;21.75;8.20;;;4.10;99.90;;;;;;5012751;28;20030;-80
2022/03/18 05:21:03;;;;;;;26.23;8.25;;;4.00;99.90;;;;;;5013197;28;20459;-82
2022/03/18 05:23:29;;;;;;;19.92;7.85;;;4.00;99.90;;;;;;5012626;28;20018;-79
2022/03/18 05:25:56;;;;;;;31.38;8.85;;;3.80;99.90;;;;;;5012947;28;20041;-82
2022/03/18 05:28:21;;;;;;;19.25;7.97;;;3.90;99.90;;;;;;5015582;28;20030;-80
2022/03/18 05:30:48;;;;;;;23.20;10.85;;;3.90;99.90;;;;;;5016922;28;20034;-81
2022/03/18 05:33:14;;;;;;;20.20;10.27;;;3.90;99.90;;;;;;5016778;28;20026;-82
2022/03/18 05:35:39;;;;;;;21.45;9.32;;;3.80;99.90;;;;;;5016832;28;20042;-81
2022/03/18 05:38:05;;;;;;;32.08;10.07;;;3.80;99.90;;;;;;5016429;28;20026;-82
2022/03/18 05:40:31;;;;;;;47.40;14.52;;;3.80;99.90;;;;;;4999169;28;20034;-82
2022/03/18 05:42:57;;;;;;;22.33;8.63;;;3.70;99.90;;;;;;5016699;28;20097;-81
2022/03/18 05:45:23;;;;;;;20.98;8.25;;;3.50;99.90;;;;;;5015446;28;20465;-78
2022/03/18 05:47:49;;;;;;;22.30;8.93;;;3.70;99.90;;;;;;5016588;28;20092;-81
2022/03/18 05:50:16;;;;;;;23.02;8.77;;;3.60;99.90;;;;;;5015351;28;20044;-81
2022/03/18 05:52:42;;;;;;;25.92;8.57;;;3.90;99.90;;;;;;5016147;28;20114;-81
2022/03/18 05:55:08;;;;;;;24.98;8.95;;;3.90;99.90;;;;;;5016506;28;20026;-80
2022/03/18 05:57:34;;;;;;;24.98;8.05;;;4.10;99.90;;;;;;5016539;28;20120;-80
2022/03/18 06:00:00;;;;;;;23.02;7.78;;;4.00;99.90;;;;;;5016357;28;20105;-82
2022/03/18 06:02:27;;;;;;;25.40;8.70;;;3.90;99.90;;;;;;5016211;28;20025;-80
2022/03/18 06:04:53;;;;;;;22.85;7.85;;;4.00;99.90;;;;;;5016263;28;20022;-80
2022/03/18 06:07:19;;;;;;;26.80;8.60;;;4.00;99.90;;;;;;5016083;28;20041;-81
2022/03/18 06:12:30;;;;;;;19.33;7.68;;;3.90;99.90;;;;;;5016155;28;20037;-78
2022/03/18 06:14:55;;;;;;;25.08;8.45;;;3.80;99.90;;;;;;5016024;28;20026;-81
2022/03/18 06:17:21;;;;;;;25.45;8.23;;;3.90;99.90;;;;;;5015957;28;20048;-82
2022/03/18 06:19:47;;;;;;;32.17;9.32;;;3.90;99.90;;;;;;5014436;28;20037;-81
2022/03/18 06:22:13;;;;;;;24.55;8.65;;;3.90;99.90;;;;;;5016012;28;20026;-80
2022/03/18 06:24:39;;;;;;;24.13;8.35;;;4.20;99.90;;;;;;5015882;28;20044;-81
2022/03/18 06:27:05;;;;;;;18.02;8.45;;;4.30;99.90;;;;;;5016086;28;20037;-81
2022/03/18 06:29:35;;;;;;;20.52;8.05;;;4.50;99.90;;;;;;5014437;28;20026;-81
2022/03/18 06:32:01;;;;;;;20.65;9.05;;;4.50;99.90;;;;;;5034302;28;20092;-82
2022/03/18 06:34:27;;;;;;;20.65;8.45;;;4.60;99.90;;;;;;5033828;28;20045;-81
2022/03/18 06:36:54;;;;;;;25.38;8.20;;;4.70;99.90;;;;;;5035562;28;20030;-82
2022/03/18 06:39:22;;;;;;;27.25;9.38;;;4.70;99.90;;;;;;5034311;28;20076;-80
2022/03/18 06:41:48;;;;;;;28.20;9.43;;;4.70;99.90;;;;;;5035524;28;20095;-82
2022/03/18 06:44:15;;;;;;;26.00;9.55;;;4.70;99.90;;;;;;5035289;28;20022;-82
2022/03/18 06:46:41;;;;;;;25.95;9.88;;;4.70;99.90;;;;;;5035067;28;20080;-81
2022/03/18 06:49:08;;;;;;;26.45;8.30;;;4.80;99.90;;;;;;5035151;28;20489;-82
2022/03/18 06:51:35;;;;;;;22.65;8.13;;;4.80;99.90;;;;;;5035161;28;20514;-79
2022/03/18 06:54:00;;;;;;;24.13;8.75;;;5.10;99.90;;;;;;5029975;28;20054;-79
2022/03/18 06:56:27;;;;;;;21.52;9.55;;;5.00;99.90;;;;;;5014616;28;20057;-82
2022/03/18 06:58:53;;;;;;;33.40;8.85;;;5.20;99.90;;;;;;5014854;28;20018;-83
2022/03/18 07:01:21;;;;;;;25.02;8.65;;;5.40;99.90;;;;;;5014651;28;20099;-83
2022/03/18 07:03:48;;;;;;;37.08;9.50;;;5.50;99.90;;;;;;5014448;28;20022;-83
2022/03/18 07:06:14;;;;;;;23.15;8.60;;;5.60;99.90;;;;;;5014606;28;20046;-80
2022/03/18 07:08:40;;;;;;;31.42;9.05;;;5.80;99.90;;;;;;5014634;28;20029;-83
2022/03/18 07:11:05;;;;;;;27.50;8.10;;;6.00;99.90;;;;;;5014676;28;20041;-83
2022/03/18 07:13:32;;;;;;;33.05;9.48;;;6.10;99.90;;;;;;5013488;28;20030;-80
2022/03/18 07:17:54;;;;;;;30.92;7.82;;;6.20;99.90;;;;;;5013784;28;20063;-83
2022/03/18 07:18:44;;;;;;;24.90;8.15;;;6.40;99.90;;;;;;5014134;28;20030;-82
2022/03/18 07:21:10;;;;;;;29.92;8.00;;;6.40;99.90;;;;;;5014366;28;20026;-82
2022/03/18 07:23:36;;;;;;;29.55;8.48;;;6.50;99.90;;;;;;5014510;28;20055;-83
2022/03/18 07:26:01;;;;;;;23.15;7.90;;;6.60;99.90;;;;;;4996475;28;20472;-82
2022/03/18 07:28:27;;;;;;;28.90;7.97;;;6.80;99.90;;;;;;5014349;28;20022;-78
2022/03/18 07:30:53;;;;;;;25.90;7.38;;;6.60;99.90;;;;;;5014386;28;20446;-81
2022/03/18 07:33:18;;;;;;;27.30;8.20;;;6.70;99.90;;;;;;5013918;28;20053;-83
2022/03/18 07:35:44;;;;;;;29.02;7.85;;;7.00;99.90;;;;;;5014063;28;20047;-83
2022/03/18 07:38:10;;;;;;;31.48;7.47;;;7.20;99.90;;;;;;5014095;28;20539;-79
2022/03/18 07:40:39;;;;;;;19.67;7.25;;;7.40;99.90;;;;;;5013789;28;20033;-82
2022/03/18 07:43:06;;;;;;;26.35;7.53;;;7.60;99.90;;;;;;5012625;28;20064;-79
2022/03/18 07:45:33;;;;;;;36.65;7.65;;;7.70;99.90;;;;;;5013879;28;20034;-82
2022/03/18 07:48:02;;;;;;;30.10;7.47;;;8.00;99.90;;;;;;5025239;28;20048;-82
2022/03/18 07:50:29;;;;;;;17.67;5.80;;;8.20;99.90;;;;;;5030911;28;20117;-83
2022/03/18 07:52:57;;;;;;;29.05;6.65;;;8.20;99.90;;;;;;5033772;28;20048;-80
2022/03/18 07:55:26;;;;;;;18.30;5.78;;;8.30;99.90;;;;;;5024583;28;20021;-83
2022/03/18 07:57:53;;;;;;;26.98;6.40;;;8.40;99.90;;;;;;5033529;28;20478;-83
2022/03/18 08:00:20;;;;;;;17.33;5.38;;;8.40;99.90;;;;;;5032294;28;20029;-82
2022/03/18 08:02:47;;;;;;;22.63;5.80;;;8.60;99.90;;;;;;5022255;28;20037;-83
2022/03/18 08:05:14;;;;;;;33.42;6.90;;;8.70;99.90;;;;;;5029678;28;20029;-82
2022/03/18 08:07:41;;;;;;;18.25;4.65;;;8.80;99.90;;;;;;5033174;28;20037;-82
2022/03/18 08:10:08;;;;;;;17.80;5.78;;;8.80;99.90;;;;;;5033351;28;20047;-84
2022/03/18 08:12:35;;;;;;;25.08;5.88;;;9.00;99.90;;;;;;5033149;28;20032;-82
2022/03/18 08:15:04;;;;;;;9.05;4.10;;;9.30;99.90;;;;;;5033281;28;20087;-82
2022/03/18 08:17:31;;;;;;;18.77;3.85;;;9.30;99.90;;;;;;5032665;28;20037;-82
2022/03/18 08:19:57;;;;;;;13.60;4.18;;;9.60;99.90;;;;;;5033278;28;20021;-79
2022/03/18 08:22:23;;;;;;;18.80;4.05;;;9.70;99.90;;;;;;5031591;28;20037;-81
2022/03/18 08:24:49;;;;;;;17.25;4.70;;;9.80;99.90;;;;;;5022527;28;20375;-81
2022/03/18 08:27:16;;;;;;;13.23;4.10;;;10.10;99.90;;;;;;5013362;28;20438;-86
2022/03/18 08:29:42;;;;;;;17.98;4.88;;;10.30;99.90;;;;;;5013250;28;20026;-81
2022/03/18 08:32:12;;;;;;;21.02;4.45;;;10.00;99.90;;;;;;5012970;28;20091;-79
2022/03/18 08:34:38;;;;;;;16.95;4.28;;;10.10;99.90;;;;;;5013233;28;20109;-80
2022/03/18 08:37:05;;;;;;;17.50;4.05;;;10.30;99.90;;;;;;5013201;28;20495;-81
2022/03/18 08:39:35;;;;;;;16.98;4.07;;;10.60;99.90;;;;;;5012787;28;20026;-81
2022/03/18 08:42:01;;;;;;;14.73;5.03;;;10.80;99.90;;;;;;5013063;28;20034;-81
2022/03/18 08:44:27;;;;;;;17.83;4.95;;;10.70;99.90;;;;;;5012761;28;20029;-80
2022/03/18 08:46:53;;;;;;;13.07;3.85;;;10.90;99.90;;;;;;5012587;28;20087;-81
2022/03/18 08:49:19;;;;;;;14.95;4.47;;;10.70;99.90;;;;;;5012910;28;20057;-80
2022/03/18 08:51:44;;;;;;;23.15;5.53;;;10.80;99.90;;;;;;5044433;28;20078;-81
2022/03/18 08:54:10;;;;;;;17.25;5.47;;;11.20;99.90;;;;;;5011457;28;20028;-81
2022/03/18 08:56:36;;;;;;;21.30;6.35;;;11.30;99.90;;;;;;5030882;28;20112;-81
2022/03/18 08:59:06;;;;;;;22.35;7.75;;;11.20;99.60;;;;;;5032309;28;20475;-79
2022/03/18 09:01:33;;;;;;;43.30;9.57;;;11.20;99.90;;;;;;5031339;28;20038;-81
2022/03/18 09:03:59;;;;;;;22.48;7.68;;;11.30;99.70;;;;;;5012374;28;20034;-79
2022/03/18 09:06:24;;;;;;;28.95;9.95;;;11.50;98.80;;;;;;5012722;28;20064;-77
2022/03/18 09:08:50;;;;;;;32.50;8.55;;;11.50;98.60;;;;;;5011923;28;20060;-80
2022/03/18 09:11:16;;;;;;;16.67;7.85;;;11.70;99.00;;;;;;5011233;28;20034;-83
2022/03/18 09:13:42;;;;;;;18.85;6.72;;;11.70;98.30;;;;;;5011783;28;20014;-81
2022/03/18 09:16:08;;;;;;;19.42;6.93;;;11.90;98.30;;;;;;5012711;28;20451;-80
2022/03/18 09:18:34;;;;;;;25.02;5.82;;;12.00;97.60;;;;;;5012099;28;20030;-81
2022/03/18 09:20:59;;;;;;;20.27;5.28;;;12.10;97.30;;;;;;5012761;28;20080;-80
2022/03/18 09:23:25;;;;;;;21.30;6.28;;;12.20;97.00;;;;;;5011140;28;20053;-81
2022/03/18 09:25:51;;;;;;;23.08;4.68;;;12.70;97.30;;;;;;5012260;28;20042;-82
2022/03/18 09:28:17;;;;;;;19.60;5.47;;;12.80;95.80;;;;;;5012226;28;20026;-81
2022/03/18 09:30:43;;;;;;;14.68;4.40;;;12.90;95.70;;;;;;5012589;28;20037;-81
2022/03/18 09:33:09;;;;;;;12.00;4.70;;;13.00;95.20;;;;;;5012186;28;20153;-80
2022/03/18 09:35:36;;;;;;;18.30;4.65;;;12.90;95.70;;;;;;5012457;28;20476;-80
2022/03/18 09:38:02;;;;;;;14.48;4.10;;;13.20;95.40;;;;;;5012523;28;20022;-79
2022/03/18 09:40:28;;;;;;;25.88;4.43;;;13.40;94.30;;;;;;5012608;28;20380;-83
2022/03/18 09:42:57;;;;;;;14.32;3.90;;;13.50;93.90;;;;;;5011984;28;20022;-82
2022/03/18 09:45:25;;;;;;;20.10;4.55;;;13.30;93.70;;;;;;5012540;28;20045;-83
2022/03/18 09:47:52;;;;;;;16.75;3.88;;;13.30;94.10;;;;;;5017589;28;20700;-80
2022/03/18 09:50:20;;;;;;;12.68;4.85;;;13.60;93.70;;;;;;5031267;28;20044;-79
2022/03/18 09:52:46;;;;;;;13.07;4.40;;;13.70;93.70;;;;;;5024902;28;20124;-82
2022/03/18 09:55:12;;;;;;;14.32;4.15;;;13.50;93.40;;;;;;5011256;28;20076;-80
2022/03/18 09:57:38;;;;;;;19.45;4.88;;;13.40;92.50;;;;;;5011257;28;20399;-83
2022/03/18 10:00:04;;;;;;;9.23;3.55;;;14.00;93.10;;;;;;5012146;28;20105;-78
2022/03/18 10:02:38;;;;;;;18.40;3.67;;;14.10;92.60;;;;;;5011888;28;20121;-79
2022/03/18 10:05:11;;;;;;;10.38;3.40;;;13.90;91.80;;;;;;5010649;28;21099;-82
2022/03/18 10:07:37;;;;;;;9.35;2.92;;;13.90;92.40;;;;;;5012155;28;20038;-81
2022/03/18 10:10:15;;;;;;;18.58;3.78;;;13.80;91.40;;;;;;5011909;28;20502;-87
2022/03/18 10:12:42;;;;;;;10.52;3.17;;;14.00;91.80;;;;;;5011977;28;20395;-82
2022/03/18 10:15:22;;;;;;;12.30;3.22;;;14.30;91.70;;;;;;5014534;28;20038;-88
2022/03/18 10:17:50;;;;;;;9.05;2.30;;;14.40;90.90;;;;;;5014879;28;20029;-83
2022/03/18 10:20:29;;;;;;;7.38;3.10;;;14.60;90.50;;;;;;5013515;28;20030;-83
2022/03/18 10:23:18;;;;;;;8.52;2.78;;;14.80;90.00;;;;;;5015268;28;20117;-83
2022/03/18 10:25:53;;;;;;;8.07;2.80;;;14.90;90.80;;;;;;5053019;23;20052;-81
2022/03/18 10:28:37;;;;;;;10.10;3.38;;;15.30;90.10;;;;;;5033852;28;20022;-82
2022/03/18 10:31:20;;;;;;;9.25;2.97;;;15.30;90.00;;;;;;5035381;28;20083;-84
2022/03/18 10:39:25;;;;;;;7.25;2.80;;;15.90;89.10;;;;;;5053548;28;20481;-79
2022/03/18 10:41:51;;;;;;;12.52;3.22;;;15.70;89.00;;;;;;5053193;28;20096;-82
2022/03/18 10:44:17;;;;;;;11.57;3.50;;;15.80;89.10;;;;;;5054618;28;20465;-82
2022/03/18 10:46:43;;;;;;;9.88;3.95;;;15.90;90.10;;;;;;5053052;28;20152;-78
2022/03/18 10:49:10;;;;;;;6.60;3.17;;;15.80;87.90;;;;;;5054866;28;20024;-82
2022/03/18 10:51:37;;;;;;;9.60;3.58;;;15.70;88.40;;;;;;5053879;28;20044;-78
2022/03/18 10:54:04;;;;;;;8.43;3.33;;;16.10;89.60;;;;;;5050267;28;20045;-75
2022/03/18 10:56:57;;;;;;;7.60;3.17;;;16.10;89.60;;;;;;5035502;28;20532;-78
2022/03/18 10:59:27;;;;;;;10.32;3.20;;;16.00;89.10;;;;;;5035983;28;20482;-78
2022/03/18 11:01:56;;;;;;;12.30;3.80;;;16.30;87.00;;;;;;5036082;28;20099;-77
2022/03/18 11:04:23;;;;;;;11.70;3.22;;;16.60;88.40;;;;;;5034280;28;20120;-76
2022/03/18 11:12:27;;;;;;;10.90;2.92;;;17.00;86.40;;;;;;5032275;28;20048;-73
2022/03/18 11:14:55;;;;;;;9.93;3.50;;;16.40;87.50;;;;;;5033925;28;20028;-77
2022/03/18 11:17:23;;;;;;;13.20;3.55;;;16.70;87.40;;;;;;5033557;28;20063;-76
2022/03/18 11:19:53;;;;;;;16.52;4.18;;;17.20;87.60;;;;;;5034091;28;20533;-74
2022/03/18 11:22:21;;;;;;;11.23;3.83;;;18.00;87.60;;;;;;5034312;28;20025;-75
2022/03/18 11:24:49;;;;;;;10.07;3.80;;;17.70;86.00;;;;;;5042819;28;20041;-73
2022/03/18 11:27:17;;;;;;;14.20;4.13;;;17.60;87.00;;;;;;5036189;28;20108;-71
2022/03/18 11:29:43;;;;;;;17.65;3.58;;;18.20;85.90;;;;;;5053386;28;20048;-73
2022/03/18 11:32:09;;;;;;;8.30;3.55;;;18.90;84.60;;;;;;5053902;28;20024;-71
2022/03/18 11:34:51;;;;;;;10.43;3.55;;;19.10;84.70;;;;;;5053748;28;20021;-71
2022/03/18 11:37:18;;;;;;;13.60;2.97;;;18.00;85.20;;;;;;5053766;28;20488;-72
2022/03/18 11:39:46;;;;;;;11.60;3.63;;;18.50;85.20;;;;;;5053339;28;20033;-72
2022/03/18 11:42:16;;;;;;;12.07;3.65;;;18.60;83.40;;;;;;5053736;28;20024;-74
2022/03/18 11:44:52;;;;;;;10.77;3.47;;;19.40;84.70;;;;;;5052277;28;20072;-70
2022/03/18 11:47:30;;;;;;;10.98;3.35;;;19.40;84.60;;;;;;5053361;28;20099;-73
2022/03/18 11:49:57;;;;;;;14.55;4.05;;;20.20;84.10;;;;;;5052095;28;20481;-72
2022/03/18 11:52:23;;;;;;;13.27;3.20;;;20.30;81.80;;;;;;5053533;28;20040;-73
2022/03/18 11:54:52;;;;;;;11.32;2.92;;;20.70;81.60;;;;;;5052619;28;20083;-74
2022/03/18 11:57:34;;;;;;;7.78;3.30;;;21.90;80.00;;;;;;5053357;28;20503;-71
2022/03/18 12:00:03;;;;;;;11.50;3.08;;;22.00;78.70;;;;;;5052031;28;20036;-72
2022/03/18 12:02:35;;;;;;;13.60;3.05;;;20.70;79.20;;;;;;5033042;28;20454;-73
2022/03/18 12:05:03;;;;;;;17.90;3.45;;;21.00;79.80;;;;;;5034586;28;20120;-71
2022/03/18 12:07:31;;;;;;;9.93;3.35;;;21.00;80.50;;;;;;5035571;28;20152;-73
2022/03/18 12:10:11;;;;;;;12.05;2.85;;;20.80;79.50;;;;;;5042084;28;20042;-72
2022/03/18 12:12:44;;;;;;;10.48;2.90;;;22.20;77.80;;;;;;5032248;28;20033;-71
2022/03/18 12:15:19;;;;;;;8.63;2.90;;;23.10;75.20;;;;;;5032689;28;20445;-72
2022/03/18 12:17:56;;;;;;;12.75;3.03;;;22.20;76.40;;;;;;5033230;28;20079;-72
2022/03/18 12:20:24;;;;;;;10.38;2.97;;;23.90;75.00;;;;;;5015773;28;20128;-73
2022/03/18 12:22:52;;;;;;;16.13;2.60;;;24.00;74.20;;;;;;5032952;28;20028;-72
2022/03/18 12:25:20;;;;;;;10.13;2.80;;;24.70;73.60;;;;;;5033100;28;20057;-72
2022/03/18 12:27:46;;;;;;;9.98;3.08;;;24.10;73.50;;;;;;5033083;28;20072;-71
2022/03/18 12:30:13;;;;;;;8.85;3.22;;;23.10;74.50;;;;;;5033548;28;20074;-72
2022/03/18 12:32:49;;;;;;;7.57;2.97;;;22.80;73.20;;;;;;5033078;28;20032;-72
2022/03/18 12:35:18;;;;;;;10.75;2.30;;;22.10;74.90;;;;;;5032141;28;20029;-73
2022/03/18 12:37:46;;;;;;;8.95;2.70;;;23.40;74.60;;;;;;5032329;28;20025;-72
2022/03/18 12:40:16;;;;;;;11.95;3.58;;;23.70;72.50;;;;;;5033055;28;20056;-72
2022/03/18 12:42:49;;;;;;;13.32;3.38;;;23.90;72.40;;;;;;5032999;28;20036;-71
2022/03/18 12:45:29;;;;;;;10.77;3.38;;;25.10;71.10;;;;;;5033170;28;20121;-73
2022/03/18 12:48:15;;;;;;;9.65;3.08;;;24.80;72.40;;;;;;5032714;28;20044;-71
2022/03/18 12:50:46;;;;;;;11.80;3.17;;;25.30;71.00;;;;;;5033082;28;20224;-72
2022/03/18 12:53:13;;;;;;;10.32;2.83;;;26.60;69.30;;;;;;5032331;28;20112;-70
2022/03/18 12:55:40;;;;;;;7.47;3.25;;;25.70;70.40;;;;;;5032964;28;20113;-72
2022/03/18 12:58:21;;;;;;;9.00;2.85;;;23.70;69.40;;;;;;5031799;28;20026;-72
2022/03/18 13:00:54;;;;;;;8.75;2.80;;;25.10;69.90;;;;;;5031648;28;20037;-73
2022/03/18 13:03:23;;;;;;;10.00;3.60;;;25.80;69.00;;;;;;5049321;28;20025;-73
2022/03/18 13:05:52;;;;;;;11.13;3.35;;;24.00;69.30;;;;;;5053008;28;20039;-72
2022/03/18 13:08:20;;;;;;;7.25;2.60;;;23.70;70.80;;;;;;5054388;28;20045;-71
2022/03/18 13:10:59;;;;;;;10.98;2.85;;;24.90;69.60;;;;;;5052719;28;20024;-72